createdAt,value
2018-06-30T00:01:14.178Z,17.80
2018-06-30T00:03:48.071Z,17.80
2018-06-30T00:06:16.528Z,17.80
2018-06-30T00:08:45.022Z,17.80
2018-06-30T00:11:13.498Z,17.80
2018-06-30T00:13:41.962Z,17.70
2018-06-30T00:16:10.448Z,17.70
2018-06-30T00:18:39.210Z,17.50
2018-06-30T00:21:08.121Z,17.50
2018-06-30T00:23:36.683Z,17.40
2018-06-30T00:26:05.484Z,17.30
2018-06-30T00:28:33.971Z,17.20
2018-06-30T00:31:02.447Z,17.20
2018-06-30T00:33:30.936Z,17.10
2018-06-30T00:35:59.416Z,17.10
2018-06-30T00:38:27.888Z,17.00
2018-06-30T00:40:56.422Z,16.90
2018-06-30T00:43:24.892Z,16.80
2018-06-30T00:45:53.373Z,16.90
2018-06-30T00:48:21.857Z,16.80
2018-06-30T00:50:50.305Z,16.80
2018-06-30T00:53:18.767Z,16.80
2018-06-30T00:55:47.264Z,16.60
2018-06-30T00:58:15.740Z,16.50
2018-06-30T01:00:44.201Z,16.50
2018-06-30T01:03:12.701Z,16.50
2018-06-30T01:05:41.146Z,16.40
2018-06-30T01:08:09.604Z,16.40
2018-06-30T01:10:38.113Z,16.40
2018-06-30T01:13:06.597Z,16.40
2018-06-30T01:15:35.060Z,16.30
2018-06-30T01:18:03.538Z,16.30
2018-06-30T01:20:32.024Z,16.20
2018-06-30T01:23:00.476Z,16.10
2018-06-30T01:25:28.966Z,16.30
2018-06-30T01:27:57.409Z,16.30
2018-06-30T01:30:25.869Z,16.40
2018-06-30T01:32:54.336Z,16.50
2018-06-30T01:35:22.792Z,16.40
2018-06-30T01:37:51.249Z,16.50
2018-06-30T01:40:19.743Z,16.40
2018-06-30T01:42:48.200Z,16.40
2018-06-30T01:45:16.665Z,16.30
2018-06-30T01:47:45.138Z,16.30
2018-06-30T01:50:13.576Z,16.30
2018-06-30T01:52:42.051Z,16.30
2018-06-30T01:55:10.553Z,16.10
2018-06-30T01:57:39.000Z,16.10
2018-06-30T02:00:07.558Z,16.10
2018-06-30T02:02:36.040Z,16.10
2018-06-30T02:05:04.549Z,16.00
2018-06-30T02:07:33.005Z,15.90
2018-06-30T02:10:01.492Z,15.90
2018-06-30T02:12:29.967Z,16.00
2018-06-30T02:14:58.453Z,16.10
2018-06-30T02:17:26.938Z,16.10
2018-06-30T02:19:55.385Z,16.20
2018-06-30T02:22:23.822Z,16.10
2018-06-30T02:24:52.310Z,16.00
2018-06-30T02:27:20.755Z,15.80
2018-06-30T02:29:49.205Z,15.90
2018-06-30T02:32:17.653Z,15.90
2018-06-30T02:34:46.194Z,16.00
2018-06-30T02:37:14.648Z,16.20
2018-06-30T02:39:43.125Z,16.10
2018-06-30T02:42:11.585Z,16.10
2018-06-30T02:44:40.049Z,16.00
2018-06-30T02:47:08.535Z,15.90
2018-06-30T02:49:36.993Z,15.80
2018-06-30T02:52:05.452Z,15.70
2018-06-30T02:54:33.962Z,15.70
2018-06-30T02:57:02.420Z,15.60
2018-06-30T02:59:30.886Z,15.60
2018-06-30T03:01:59.520Z,15.70
2018-06-30T03:04:28.027Z,15.60
2018-06-30T03:06:56.469Z,15.60
2018-06-30T03:09:24.953Z,15.60
2018-06-30T03:11:53.446Z,15.50
2018-06-30T03:14:21.897Z,15.40
2018-06-30T03:16:50.374Z,15.30
2018-06-30T03:19:18.814Z,15.30
2018-06-30T03:21:47.285Z,15.30
2018-06-30T03:24:15.771Z,15.30
2018-06-30T03:26:44.234Z,15.40
2018-06-30T03:29:12.748Z,15.40
2018-06-30T03:31:41.268Z,15.30
2018-06-30T03:34:09.706Z,15.30
2018-06-30T03:36:38.180Z,15.30
2018-06-30T03:39:08.728Z,15.30
2018-06-30T03:41:37.200Z,15.30
2018-06-30T03:44:05.861Z,15.30
2018-06-30T03:46:34.357Z,15.30
2018-06-30T03:49:02.874Z,15.30
2018-06-30T03:51:31.340Z,15.30
2018-06-30T03:53:59.836Z,15.30
2018-06-30T03:56:28.260Z,15.40
2018-06-30T03:58:56.708Z,15.30
2018-06-30T04:01:25.179Z,15.20
2018-06-30T04:03:53.632Z,15.20
2018-06-30T04:06:22.069Z,15.30
2018-06-30T04:08:50.526Z,15.40
2018-06-30T04:11:18.979Z,15.50
2018-06-30T04:13:47.415Z,15.50
2018-06-30T04:16:15.916Z,15.50
2018-06-30T04:18:44.376Z,15.50
2018-06-30T04:21:12.914Z,15.60
2018-06-30T04:23:41.380Z,15.60
2018-06-30T04:26:09.834Z,15.60
2018-06-30T04:28:38.283Z,15.70
2018-06-30T04:31:06.845Z,15.70
2018-06-30T04:33:35.307Z,15.80
2018-06-30T04:36:03.820Z,15.80
2018-06-30T04:38:32.278Z,15.90
2018-06-30T04:41:00.708Z,16.00
2018-06-30T04:43:29.191Z,16.10
2018-06-30T04:45:57.658Z,16.10
2018-06-30T04:48:26.104Z,16.20
2018-06-30T04:50:54.588Z,16.30
2018-06-30T04:53:23.065Z,16.30
2018-06-30T04:55:51.527Z,16.50
2018-06-30T04:58:19.973Z,16.60
2018-06-30T05:00:48.501Z,16.60
2018-06-30T05:03:16.976Z,16.70
2018-06-30T05:05:45.454Z,16.70
2018-06-30T05:08:13.908Z,16.80
2018-06-30T05:10:42.344Z,16.80
2018-06-30T05:13:10.809Z,17.00
2018-06-30T05:15:39.310Z,17.00
2018-06-30T05:18:07.770Z,17.10
2018-06-30T05:20:36.242Z,17.20
2018-06-30T05:23:04.776Z,17.20
2018-06-30T05:25:33.227Z,17.30
2018-06-30T05:28:01.673Z,17.40
2018-06-30T05:30:30.156Z,17.50
2018-06-30T05:32:58.606Z,17.60
2018-06-30T05:35:27.065Z,17.80
2018-06-30T05:37:55.535Z,17.80
2018-06-30T05:40:24.008Z,17.90
2018-06-30T05:42:52.491Z,17.90
2018-06-30T05:45:20.996Z,18.00
2018-06-30T05:47:49.453Z,18.20
2018-06-30T05:50:17.934Z,18.50
2018-06-30T05:52:46.419Z,18.80
2018-06-30T05:55:14.872Z,18.90
2018-06-30T05:57:43.333Z,19.20
2018-06-30T06:00:11.862Z,19.50
2018-06-30T06:02:40.348Z,19.90
2018-06-30T06:05:08.860Z,19.80
2018-06-30T06:07:37.366Z,19.70
2018-06-30T06:10:05.949Z,20.40
2018-06-30T06:12:34.473Z,20.60
2018-06-30T06:15:03.015Z,20.80
2018-06-30T06:17:31.491Z,20.70
2018-06-30T06:19:59.983Z,20.80
2018-06-30T06:22:28.483Z,20.70
2018-06-30T06:24:56.976Z,20.50
2018-06-30T06:27:25.450Z,20.80
2018-06-30T06:29:53.957Z,21.10
2018-06-30T06:32:22.448Z,21.30
2018-06-30T06:34:50.931Z,21.50
2018-06-30T06:37:19.477Z,21.80
2018-06-30T06:39:47.979Z,21.90
2018-06-30T06:42:16.459Z,22.40
2018-06-30T06:44:45.000Z,22.60
2018-06-30T06:47:13.493Z,22.50
2018-06-30T06:49:41.957Z,22.80
2018-06-30T06:52:10.460Z,23.30
2018-06-30T06:54:39.032Z,23.40
2018-06-30T06:57:07.525Z,23.60
2018-06-30T06:59:36.038Z,23.90
2018-06-30T07:02:04.525Z,23.20
2018-06-30T07:04:32.990Z,23.60
2018-06-30T07:07:01.626Z,23.70
2018-06-30T07:09:30.136Z,24.60
2018-06-30T07:11:58.613Z,24.90
2018-06-30T07:14:28.714Z,24.90
2018-06-30T07:16:57.225Z,25.10
2018-06-30T07:19:25.700Z,24.60
2018-06-30T07:21:54.169Z,25.00
2018-06-30T07:24:22.632Z,25.80
2018-06-30T07:26:51.082Z,25.70
2018-06-30T07:29:19.596Z,26.00
2018-06-30T07:31:48.098Z,26.80
2018-06-30T07:34:16.575Z,26.30
2018-06-30T07:36:45.048Z,26.80
2018-06-30T07:39:13.531Z,26.00
2018-06-30T07:41:42.447Z,26.00
2018-06-30T07:44:10.763Z,26.30
2018-06-30T07:46:39.237Z,26.10
2018-06-30T07:49:07.727Z,26.40
2018-06-30T07:51:36.212Z,26.40
2018-06-30T07:54:04.691Z,25.90
2018-06-30T07:56:33.155Z,26.30
2018-06-30T07:59:01.654Z,26.60
2018-06-30T08:01:30.112Z,26.90
2018-06-30T08:03:58.575Z,26.90
2018-06-30T08:06:27.057Z,27.20
2018-06-30T08:08:55.543Z,27.30
2018-06-30T08:11:24.031Z,27.80
2018-06-30T08:13:52.580Z,28.00
2018-06-30T08:16:20.996Z,28.30
2018-06-30T08:18:49.496Z,28.70
2018-06-30T08:21:18.009Z,28.60
2018-06-30T08:23:46.492Z,28.20
2018-06-30T08:26:15.183Z,28.60
2018-06-30T08:28:43.717Z,28.80
2018-06-30T08:31:12.181Z,28.60
2018-06-30T08:33:40.660Z,28.40
2018-06-30T08:36:09.198Z,29.10
2018-06-30T08:38:37.653Z,29.10
2018-06-30T08:41:06.107Z,29.30
2018-06-30T08:43:34.735Z,28.90
2018-06-30T08:46:03.224Z,29.90
2018-06-30T08:48:31.691Z,29.60
2018-06-30T08:51:00.233Z,29.10
2018-06-30T08:53:28.720Z,28.90
2018-06-30T08:55:57.207Z,28.70
2018-06-30T08:58:25.734Z,28.30
2018-06-30T09:00:54.216Z,29.00
2018-06-30T09:03:22.710Z,29.40
2018-06-30T09:05:51.204Z,29.10
2018-06-30T09:08:19.694Z,29.30
2018-06-30T09:10:48.181Z,29.30
2018-06-30T09:13:16.835Z,28.90
2018-06-30T09:15:45.303Z,28.70
2018-06-30T09:18:13.769Z,28.90
2018-06-30T09:20:42.273Z,28.70
2018-06-30T09:23:10.736Z,29.80
2018-06-30T09:25:39.216Z,30.20
2018-06-30T09:28:07.689Z,30.60
2018-06-30T09:30:36.132Z,30.80
2018-06-30T09:33:04.652Z,31.50
2018-06-30T09:35:33.114Z,31.80
2018-06-30T09:38:01.651Z,32.00
2018-06-30T09:40:31.696Z,31.30
2018-06-30T09:43:00.184Z,31.50
2018-06-30T09:45:28.707Z,31.90
2018-06-30T09:47:57.180Z,32.50
2018-06-30T09:50:25.753Z,32.40
2018-06-30T09:52:54.492Z,32.50
2018-06-30T09:55:22.932Z,31.60
2018-06-30T09:57:51.452Z,32.30
2018-06-30T10:00:25.119Z,32.00
2018-06-30T10:02:53.596Z,31.80
2018-06-30T10:05:22.217Z,32.10
2018-06-30T10:07:50.679Z,32.50
2018-06-30T10:10:19.172Z,31.70
2018-06-30T10:12:47.636Z,31.80
2018-06-30T10:15:16.120Z,32.50
2018-06-30T10:17:44.678Z,33.50
2018-06-30T10:20:13.168Z,34.00
2018-06-30T10:22:41.658Z,33.80
2018-06-30T10:25:10.126Z,34.40
2018-06-30T10:27:38.598Z,34.50
2018-06-30T10:30:07.109Z,33.80
2018-06-30T10:32:35.582Z,34.00
2018-06-30T10:35:04.100Z,33.70
2018-06-30T10:37:32.590Z,34.10
2018-06-30T10:40:01.030Z,34.60
2018-06-30T10:42:29.503Z,34.30
2018-06-30T10:44:57.960Z,34.40
2018-06-30T10:47:26.457Z,35.80
2018-06-30T10:49:54.972Z,35.80
2018-06-30T10:52:23.450Z,36.20
2018-06-30T10:54:51.937Z,36.20
2018-06-30T10:57:20.394Z,36.20
2018-06-30T10:59:48.870Z,35.10
2018-06-30T11:02:17.341Z,34.10
2018-06-30T11:04:45.788Z,35.10
2018-06-30T11:07:14.276Z,35.10
2018-06-30T11:09:42.748Z,35.00
2018-06-30T11:12:11.266Z,34.70
2018-06-30T11:14:39.725Z,34.20
2018-06-30T11:17:08.258Z,35.30
2018-06-30T11:19:36.734Z,35.60
2018-06-30T11:22:05.261Z,35.20
2018-06-30T11:24:33.796Z,35.70
2018-06-30T11:27:02.277Z,36.70
2018-06-30T11:29:30.825Z,35.60
2018-06-30T11:31:59.245Z,36.20
2018-06-30T11:34:27.695Z,35.80
2018-06-30T11:36:56.183Z,35.20
2018-06-30T11:39:24.666Z,35.50
2018-06-30T11:41:53.271Z,36.50
2018-06-30T11:44:21.741Z,36.90
2018-06-30T11:46:50.268Z,36.80
2018-06-30T11:49:18.764Z,37.30
2018-06-30T11:51:47.213Z,37.80
2018-06-30T11:54:15.718Z,38.00
2018-06-30T11:56:44.168Z,38.10
2018-06-30T11:59:12.605Z,38.30
2018-06-30T12:01:41.115Z,36.90
2018-06-30T12:04:09.591Z,36.20
2018-06-30T12:06:38.054Z,36.70
2018-06-30T12:09:08.724Z,36.50
2018-06-30T12:11:37.259Z,35.10
2018-06-30T12:14:06.392Z,35.40
2018-06-30T12:16:35.082Z,35.30
2018-06-30T12:19:03.640Z,35.60
2018-06-30T12:21:32.229Z,36.30
2018-06-30T12:24:00.746Z,35.70
2018-06-30T12:26:29.207Z,36.40
2018-06-30T12:28:57.708Z,36.50
2018-06-30T12:31:26.202Z,35.50
2018-06-30T12:33:54.697Z,34.20
2018-06-30T12:36:23.132Z,34.50
2018-06-30T12:38:51.625Z,36.00
2018-06-30T12:41:20.087Z,37.10
2018-06-30T12:43:48.597Z,36.80
2018-06-30T12:46:17.083Z,36.00
2018-06-30T12:48:45.531Z,36.40
2018-06-30T12:51:13.971Z,36.40
2018-06-30T12:53:42.473Z,36.70
2018-06-30T12:56:10.933Z,36.70
2018-06-30T12:58:39.413Z,36.50
2018-06-30T13:01:07.900Z,36.40
2018-06-30T13:03:36.424Z,36.00
2018-06-30T13:06:05.013Z,35.40
2018-06-30T13:08:33.521Z,35.20
2018-06-30T13:11:01.965Z,34.90
2018-06-30T13:13:30.444Z,36.00
2018-06-30T13:15:58.951Z,36.50
2018-06-30T13:18:27.443Z,37.10
2018-06-30T13:20:55.934Z,36.40
2018-06-30T13:23:24.449Z,35.00
2018-06-30T13:25:52.900Z,35.00
2018-06-30T13:28:21.415Z,35.80
2018-06-30T13:30:49.915Z,35.80
2018-06-30T13:33:18.401Z,36.30
2018-06-30T13:35:46.880Z,37.40
2018-06-30T13:38:15.393Z,36.70
2018-06-30T13:40:43.885Z,35.80
2018-06-30T13:43:12.483Z,35.80
2018-06-30T13:45:41.243Z,36.50
2018-06-30T13:48:09.734Z,36.40
2018-06-30T13:50:38.252Z,36.00
2018-06-30T13:53:06.765Z,36.20
2018-06-30T13:55:35.255Z,37.40
2018-06-30T13:58:03.799Z,35.40
2018-06-30T14:00:32.344Z,35.10
2018-06-30T14:03:00.833Z,36.30
2018-06-30T14:05:29.325Z,36.00
2018-06-30T14:07:57.869Z,35.90
2018-06-30T14:10:26.346Z,36.10
2018-06-30T14:12:54.883Z,34.80
2018-06-30T14:15:23.332Z,34.30
2018-06-30T14:17:51.815Z,34.50
2018-06-30T14:20:20.290Z,35.80
2018-06-30T14:22:48.787Z,37.10
2018-06-30T14:25:17.235Z,37.10
2018-06-30T14:27:45.746Z,35.60
2018-06-30T14:30:14.306Z,34.40
2018-06-30T14:32:42.896Z,35.00
2018-06-30T14:35:11.404Z,35.70
2018-06-30T14:37:40.420Z,35.90
2018-06-30T14:40:09.544Z,35.20
2018-06-30T14:42:38.022Z,35.20
2018-06-30T14:45:06.576Z,35.20
2018-06-30T14:47:35.091Z,35.40
2018-06-30T14:50:03.645Z,35.90
2018-06-30T14:52:32.137Z,35.70
2018-06-30T14:55:00.576Z,36.00
2018-06-30T14:57:29.046Z,35.10
2018-06-30T14:59:57.543Z,34.30
2018-06-30T15:02:26.010Z,32.60
2018-06-30T15:04:54.455Z,31.20
2018-06-30T15:07:22.997Z,31.00
2018-06-30T15:09:51.494Z,32.90
2018-06-30T15:12:19.978Z,34.00
2018-06-30T15:14:48.480Z,33.90
2018-06-30T15:17:16.941Z,34.00
2018-06-30T15:19:45.423Z,33.80
2018-06-30T15:22:13.934Z,33.00
2018-06-30T15:24:42.448Z,33.20
2018-06-30T15:27:10.884Z,33.50
2018-06-30T15:29:39.406Z,33.70
2018-06-30T15:32:07.904Z,33.50
2018-06-30T15:34:36.471Z,33.20
2018-06-30T15:37:05.090Z,33.80
2018-06-30T15:39:33.576Z,33.30
2018-06-30T15:42:02.129Z,33.20
2018-06-30T15:44:30.672Z,32.20
2018-06-30T15:46:59.291Z,32.10
2018-06-30T15:49:27.793Z,32.60
2018-06-30T15:51:56.327Z,33.20
2018-06-30T15:54:24.855Z,33.40
2018-06-30T15:56:53.326Z,33.00
2018-06-30T15:59:21.863Z,33.10
2018-06-30T16:01:50.388Z,33.40
2018-06-30T16:04:18.877Z,33.80
2018-06-30T16:06:47.405Z,33.70
2018-06-30T16:09:15.903Z,33.50
2018-06-30T16:11:44.384Z,33.40
2018-06-30T16:14:12.894Z,33.50
2018-06-30T16:16:41.362Z,33.30
2018-06-30T16:19:09.839Z,33.70
2018-06-30T16:21:38.314Z,33.40
2018-06-30T16:24:06.874Z,32.80
2018-06-30T16:26:35.340Z,32.70
2018-06-30T16:29:03.878Z,32.30
2018-06-30T16:31:32.383Z,32.40
2018-06-30T16:34:00.850Z,32.00
2018-06-30T16:36:29.352Z,32.10
2018-06-30T16:38:57.863Z,32.20
2018-06-30T16:41:26.349Z,32.00
2018-06-30T16:43:56.149Z,32.20
2018-06-30T16:46:24.631Z,31.90
2018-06-30T16:48:53.158Z,32.20
2018-06-30T16:51:21.652Z,32.00
2018-06-30T16:53:50.193Z,31.70
2018-06-30T16:56:18.740Z,31.60
2018-06-30T16:58:47.292Z,31.40
2018-06-30T17:01:15.793Z,31.20
2018-06-30T17:03:46.333Z,31.10
2018-06-30T17:06:14.889Z,31.00
2018-06-30T17:08:43.390Z,31.60
2018-06-30T17:11:11.896Z,31.50
2018-06-30T17:13:40.481Z,31.20
2018-06-30T17:16:08.983Z,30.80
2018-06-30T17:18:37.875Z,30.30
2018-06-30T17:21:06.440Z,30.10
2018-06-30T17:23:34.930Z,29.70
2018-06-30T17:26:03.425Z,29.60
2018-06-30T17:28:31.945Z,29.50
2018-06-30T17:31:00.457Z,29.20
2018-06-30T17:33:28.960Z,28.90
2018-06-30T17:35:57.776Z,28.80
2018-06-30T17:38:26.310Z,28.70
2018-06-30T17:40:54.854Z,28.70
2018-06-30T17:43:23.373Z,28.70
2018-06-30T17:45:51.862Z,28.50
2018-06-30T17:48:20.348Z,28.40
2018-06-30T17:50:48.919Z,28.40
2018-06-30T17:53:17.422Z,28.30
2018-06-30T17:55:45.912Z,28.20
2018-06-30T17:58:14.473Z,28.20
2018-06-30T18:00:42.992Z,28.10
2018-06-30T18:03:12.380Z,28.10
2018-06-30T18:05:40.893Z,28.00
2018-06-30T18:08:09.400Z,27.90
2018-06-30T18:10:37.972Z,27.90
2018-06-30T18:13:06.551Z,27.80
2018-06-30T18:15:35.084Z,27.80
2018-06-30T18:18:03.616Z,27.70
2018-06-30T18:20:32.130Z,27.60
2018-06-30T18:23:00.623Z,27.60
2018-06-30T18:25:29.116Z,27.60
2018-06-30T18:27:57.614Z,27.50
2018-06-30T18:30:26.122Z,27.40
2018-06-30T18:32:54.639Z,27.30
2018-06-30T18:35:23.364Z,27.30
2018-06-30T18:37:51.868Z,27.30
2018-06-30T18:40:20.401Z,27.20
2018-06-30T18:42:49.000Z,27.10
2018-06-30T18:45:17.515Z,27.00
2018-06-30T18:47:46.022Z,27.00
2018-06-30T18:50:14.577Z,26.80
2018-06-30T18:52:43.142Z,26.90
2018-06-30T18:55:11.642Z,26.80
2018-06-30T18:57:40.261Z,26.60
2018-06-30T19:00:09.186Z,26.50
2018-06-30T19:02:37.668Z,26.40
2018-06-30T19:05:06.386Z,26.50
2018-06-30T19:07:34.903Z,26.30
2018-06-30T19:10:03.425Z,26.30
2018-06-30T19:12:31.956Z,26.20
2018-06-30T19:15:00.507Z,26.20
2018-06-30T19:17:29.072Z,26.00
2018-06-30T19:19:57.672Z,26.00
2018-06-30T19:22:26.208Z,25.80
2018-06-30T19:24:54.727Z,25.80
2018-06-30T19:27:23.291Z,25.70
2018-06-30T19:29:51.855Z,25.60
2018-06-30T19:32:20.440Z,25.50
2018-06-30T19:34:49.058Z,25.50
2018-06-30T19:37:17.540Z,25.40
2018-06-30T19:39:46.150Z,25.20
2018-06-30T19:42:14.787Z,25.20
2018-06-30T19:44:43.264Z,25.20
2018-06-30T19:47:12.417Z,25.00
2018-06-30T19:49:41.012Z,24.90
2018-06-30T19:52:09.505Z,24.80
2018-06-30T19:54:37.980Z,24.80
2018-06-30T19:57:06.636Z,24.70
2018-06-30T19:59:35.096Z,24.70
2018-06-30T20:02:03.709Z,24.50
2018-06-30T20:04:32.204Z,24.50
2018-06-30T20:07:00.663Z,24.40
2018-06-30T20:09:29.147Z,24.30
2018-06-30T20:11:57.926Z,24.10
2018-06-30T20:14:26.447Z,23.90
2018-06-30T20:16:54.940Z,23.90
2018-06-30T20:19:23.426Z,24.00
2018-06-30T20:21:51.901Z,24.00
2018-06-30T20:24:20.392Z,23.90
2018-06-30T20:26:48.906Z,23.90
2018-06-30T20:29:17.401Z,23.90
2018-06-30T20:31:46.032Z,23.80
2018-06-30T20:34:14.485Z,23.70
2018-06-30T20:36:42.992Z,23.60
2018-06-30T20:39:11.492Z,23.50
2018-06-30T20:41:40.064Z,23.40
2018-06-30T20:44:09.214Z,23.30
2018-06-30T20:46:37.690Z,23.00
2018-06-30T20:49:06.260Z,22.90
2018-06-30T20:51:34.754Z,22.90
2018-06-30T20:54:03.337Z,23.00
2018-06-30T20:56:31.872Z,23.10
2018-06-30T20:59:00.362Z,22.90
2018-06-30T21:01:28.862Z,22.80
2018-06-30T21:03:57.363Z,22.90
2018-06-30T21:06:25.856Z,22.80
2018-06-30T21:08:54.350Z,22.80
2018-06-30T21:11:22.856Z,22.70
2018-06-30T21:13:51.474Z,22.70
2018-06-30T21:16:19.969Z,22.60
2018-06-30T21:18:48.473Z,22.60
2018-06-30T21:21:16.988Z,22.60
2018-06-30T21:23:45.469Z,22.70
2018-06-30T21:26:13.991Z,22.70
2018-06-30T21:28:42.498Z,22.70
2018-06-30T21:31:11.000Z,22.70
2018-06-30T21:33:39.485Z,22.60
2018-06-30T21:36:07.933Z,22.50
2018-06-30T21:38:36.444Z,22.40
2018-06-30T21:41:04.960Z,22.30
2018-06-30T21:43:33.454Z,22.40
2018-06-30T21:46:01.909Z,22.30
2018-06-30T21:48:30.372Z,22.10
2018-06-30T21:50:58.842Z,22.20
2018-06-30T21:53:27.314Z,22.20
2018-06-30T21:55:55.807Z,22.10
2018-06-30T21:58:24.264Z,21.90
2018-06-30T22:00:58.145Z,21.90
2018-06-30T22:03:27.682Z,21.80
2018-06-30T22:05:57.269Z,21.60
2018-06-30T22:08:25.791Z,21.70
2018-06-30T22:10:54.538Z,21.60
2018-06-30T22:13:22.957Z,21.40
2018-06-30T22:15:51.501Z,21.60
2018-06-30T22:18:20.114Z,21.40
2018-06-30T22:20:48.667Z,21.50
2018-06-30T22:23:17.271Z,21.60
2018-06-30T22:25:45.765Z,21.80
2018-06-30T22:28:14.262Z,21.70
2018-06-30T22:30:42.770Z,21.50
2018-06-30T22:33:11.216Z,21.40
2018-06-30T22:35:39.730Z,21.50
2018-06-30T22:38:08.265Z,21.60
2018-06-30T22:40:36.729Z,21.40
2018-06-30T22:43:05.436Z,21.20
2018-06-30T22:45:33.959Z,21.20
2018-06-30T22:48:02.409Z,21.00
2018-06-30T22:50:30.881Z,21.00
2018-06-30T22:52:59.374Z,20.90
2018-06-30T22:55:27.880Z,20.90
2018-06-30T22:57:56.335Z,21.00
2018-06-30T23:00:24.913Z,20.90
2018-06-30T23:02:53.368Z,20.90
2018-06-30T23:05:21.834Z,20.90
2018-06-30T23:07:50.319Z,20.70
2018-06-30T23:10:18.805Z,20.60
2018-06-30T23:12:48.136Z,20.60
2018-06-30T23:15:16.683Z,20.60
2018-06-30T23:17:45.169Z,20.70
2018-06-30T23:20:13.614Z,20.80
2018-06-30T23:22:57.553Z,20.60
2018-06-30T23:25:27.372Z,20.80
2018-06-30T23:27:56.178Z,20.80
2018-06-30T23:30:25.328Z,20.60
2018-06-30T23:32:53.906Z,20.60
2018-06-30T23:35:23.726Z,20.50
2018-06-30T23:37:52.637Z,20.60
2018-06-30T23:40:21.129Z,20.60
2018-06-30T23:42:49.589Z,20.40
2018-06-30T23:45:18.419Z,20.20
2018-06-30T23:47:46.905Z,20.30
2018-06-30T23:50:15.383Z,20.40
2018-06-30T23:52:43.870Z,20.50
2018-06-30T23:55:12.528Z,20.50
2018-06-30T23:57:41.189Z,20.50
